Time;durP1;ratioP1;P1;durP2;ratioP2;P2;SDS_P1;SDS_P2;PMS_P1;PMS_P2;Temp;Humidity;BMP_temperature;BMP_pressure;BME280_temperature;BME280_humidity;BME280_pressure;Samples;Min_cycle;Max_cycle;Signal;HPM_P1;HPM_P2
2022/04/22 00:00:37;;;;;;;27.27;24.33;;;8.70;99.90;;;;;;5053594;28;20174;-71
2022/04/22 00:03:07;;;;;;;25.42;22.60;;;8.60;99.90;;;;;;5053191;28;20257;-71
2022/04/22 00:05:34;;;;;;;27.48;23.50;;;8.60;99.90;;;;;;5053723;28;20182;-71
2022/04/22 00:08:00;;;;;;;26.85;23.88;;;8.50;99.90;;;;;;5052375;28;20178;-71
2022/04/22 00:10:26;;;;;;;27.00;23.88;;;8.50;99.90;;;;;;5052645;28;20204;-71
2022/04/22 00:12:51;;;;;;;28.05;23.63;;;8.50;99.90;;;;;;5051872;28;20626;-71
2022/04/22 00:15:17;;;;;;;29.08;24.58;;;8.40;99.90;;;;;;5053754;28;20257;-71
2022/04/22 00:17:43;;;;;;;26.45;23.60;;;8.30;99.90;;;;;;5053354;28;20230;-71
2022/04/22 00:20:11;;;;;;;27.98;23.92;;;8.30;99.90;;;;;;5053172;28;20174;-71
2022/04/22 00:22:39;;;;;;;26.40;23.23;;;8.30;99.90;;;;;;5051786;28;20187;-71
2022/04/22 00:25:05;;;;;;;28.17;23.95;;;8.20;99.90;;;;;;5052940;28;20598;-71
2022/04/22 00:27:31;;;;;;;27.08;23.55;;;8.20;99.90;;;;;;5052075;28;20233;-71
2022/04/22 00:29:56;;;;;;;27.73;24.73;;;8.10;99.90;;;;;;5052907;28;20182;-71
2022/04/22 00:32:22;;;;;;;26.58;23.77;;;8.10;99.90;;;;;;5051533;28;20198;-69
2022/04/22 00:34:48;;;;;;;25.70;23.00;;;8.20;99.90;;;;;;5052980;28;20174;-69
2022/04/22 00:37:13;;;;;;;27.20;23.17;;;8.10;99.90;;;;;;5051439;28;20206;-69
2022/04/22 00:39:39;;;;;;;27.88;23.92;;;8.10;99.90;;;;;;5051479;28;20174;-69
2022/04/22 00:42:11;;;;;;;29.55;24.23;;;8.00;99.90;;;;;;5052283;28;20170;-69
2022/04/22 00:44:37;;;;;;;27.10;23.40;;;7.90;99.90;;;;;;5052990;28;20265;-70
2022/04/22 00:47:27;;;;;;;26.58;23.73;;;7.90;99.90;;;;;;5052949;28;20198;-70
2022/04/22 00:49:53;;;;;;;28.05;24.20;;;8.00;99.90;;;;;;5055490;28;20167;-70
2022/04/22 00:52:19;;;;;;;29.20;24.23;;;8.00;99.90;;;;;;5056007;28;20232;-70
2022/04/22 00:54:45;;;;;;;26.40;22.92;;;7.90;99.90;;;;;;5056389;28;20231;-70
2022/04/22 00:57:11;;;;;;;26.25;23.35;;;7.90;99.90;;;;;;5055896;28;20201;-70
2022/04/22 00:59:37;;;;;;;25.70;22.83;;;7.90;99.90;;;;;;5055865;28;20211;-69
2022/04/22 01:02:03;;;;;;;25.42;22.77;;;7.90;99.90;;;;;;5054807;28;20190;-69
2022/04/22 01:09:56;;;;;;;23.75;21.25;;;7.90;99.90;;;;;;5055902;28;20633;-69
2022/04/22 01:12:22;;;;;;;25.27;20.75;;;8.00;99.90;;;;;;5056422;28;20292;-69
2022/04/22 01:14:48;;;;;;;22.63;20.33;;;8.00;99.90;;;;;;5054423;28;20175;-69
2022/04/22 01:17:14;;;;;;;23.98;21.17;;;8.00;99.90;;;;;;5055460;28;20194;-69
2022/04/22 01:19:41;;;;;;;24.52;19.40;;;8.10;99.90;;;;;;5054325;28;20269;-70
2022/04/22 01:22:08;;;;;;;22.20;19.80;;;8.10;99.90;;;;;;5055183;28;20174;-71
2022/04/22 01:24:34;;;;;;;21.48;19.17;;;8.10;99.90;;;;;;5055001;28;20179;-71
2022/04/22 01:26:59;;;;;;;21.45;19.23;;;8.10;99.90;;;;;;5054849;28;20194;-71
2022/04/22 01:29:25;;;;;;;21.23;19.00;;;7.90;99.90;;;;;;5055060;28;20209;-71
2022/04/22 01:31:50;;;;;;;19.80;17.65;;;7.90;99.90;;;;;;5056544;28;20174;-71
2022/04/22 01:34:16;;;;;;;20.17;18.02;;;7.80;99.90;;;;;;5055374;28;20281;-71
2022/04/22 01:36:42;;;;;;;20.58;18.42;;;7.80;99.90;;;;;;5055774;28;20198;-71
2022/04/22 01:39:08;;;;;;;20.65;18.45;;;7.80;99.90;;;;;;5055694;28;20201;-71
2022/04/22 01:41:34;;;;;;;20.23;17.92;;;7.70;99.90;;;;;;5055745;28;20171;-71
2022/04/22 01:43:59;;;;;;;20.00;17.92;;;7.60;99.90;;;;;;5055511;28;20186;-71
2022/04/22 01:46:25;;;;;;;20.02;17.67;;;7.60;99.90;;;;;;5055457;28;20201;-71
2022/04/22 01:48:50;;;;;;;19.58;17.48;;;7.50;99.90;;;;;;5055562;28;20537;-71
2022/04/22 01:51:16;;;;;;;18.58;16.65;;;7.50;99.90;;;;;;5054362;28;20296;-71
2022/04/22 01:53:42;;;;;;;19.55;17.50;;;7.50;99.90;;;;;;5055656;28;20201;-71
2022/04/22 01:56:08;;;;;;;17.75;15.95;;;7.50;99.90;;;;;;5054380;28;20206;-71
2022/04/22 01:58:33;;;;;;;18.08;16.20;;;7.50;99.90;;;;;;5054182;28;20182;-71
2022/04/22 02:00:59;;;;;;;19.42;16.88;;;7.40;99.90;;;;;;5055959;28;20193;-71
2022/04/22 02:03:25;;;;;;;17.67;15.77;;;7.40;99.90;;;;;;5054770;28;20182;-71
2022/04/22 02:05:50;;;;;;;17.48;15.60;;;7.40;99.90;;;;;;5054183;28;20598;-70
2022/04/22 02:08:16;;;;;;;16.65;14.85;;;7.40;99.90;;;;;;5054822;28;20185;-70
2022/04/22 02:10:43;;;;;;;16.75;15.05;;;7.40;99.90;;;;;;5054533;28;20200;-70
2022/04/22 02:13:09;;;;;;;16.83;15.02;;;7.30;99.90;;;;;;5054613;28;20228;-70
2022/04/22 02:15:35;;;;;;;15.65;14.02;;;7.30;99.90;;;;;;5055573;28;20174;-70
2022/04/22 02:18:01;;;;;;;15.35;13.77;;;7.30;99.90;;;;;;5054515;28;20265;-70
2022/04/22 02:20:26;;;;;;;16.08;13.82;;;7.30;99.90;;;;;;5054175;28;20274;-70
2022/04/22 02:22:52;;;;;;;15.82;14.20;;;7.20;99.90;;;;;;5055340;28;20273;-70
2022/04/22 02:25:18;;;;;;;15.93;14.32;;;7.20;99.90;;;;;;5054370;28;20182;-70
2022/04/22 02:30:28;;;;;;;15.90;14.30;;;7.20;99.90;;;;;;5056099;28;20193;-70
2022/04/22 02:32:54;;;;;;;15.02;13.52;;;7.20;99.90;;;;;;5054007;28;20209;-70
2022/04/22 02:35:21;;;;;;;14.20;12.70;;;7.20;99.90;;;;;;5053787;28;20633;-70
2022/04/22 02:37:47;;;;;;;14.90;13.40;;;7.20;99.90;;;;;;5055362;28;20186;-70
2022/04/22 02:45:26;;;;;;;15.15;13.65;;;7.20;99.90;;;;;;5055068;28;20185;-71
2022/04/22 02:45:43;;;;;;;14.23;12.75;;;7.10;99.90;;;;;;5055410;28;20216;-71
2022/04/22 02:48:09;;;;;;;14.73;13.23;;;7.20;99.90;;;;;;5053526;28;20171;-71
2022/04/22 02:50:34;;;;;;;14.32;12.82;;;7.20;99.90;;;;;;5054557;28;20174;-71
2022/04/22 02:53:00;;;;;;;13.98;12.57;;;7.10;99.90;;;;;;5055021;28;20197;-71
2022/04/22 02:55:25;;;;;;;14.10;12.70;;;7.10;99.90;;;;;;5053594;28;20245;-71
2022/04/22 02:57:51;;;;;;;13.95;12.55;;;7.10;99.90;;;;;;5054341;28;20244;-71
2022/04/22 03:00:17;;;;;;;13.73;12.32;;;7.10;99.90;;;;;;5053544;28;20193;-71
2022/04/22 03:02:43;;;;;;;14.23;12.80;;;7.00;99.90;;;;;;5053697;28;20193;-71
2022/04/22 03:05:09;;;;;;;14.38;12.85;;;7.00;99.90;;;;;;5054176;28;20189;-71
2022/04/22 03:07:35;;;;;;;15.15;13.65;;;7.00;99.90;;;;;;5053474;28;20653;-70
2022/04/22 03:10:01;;;;;;;14.25;12.85;;;6.90;99.90;;;;;;5052678;28;20295;-70
2022/04/22 03:12:26;;;;;;;14.07;12.67;;;6.80;99.90;;;;;;5052576;28;20262;-70
2022/04/22 03:14:52;;;;;;;15.17;13.57;;;6.70;99.90;;;;;;5053032;28;20178;-70
2022/04/22 03:17:19;;;;;;;14.40;13.00;;;6.70;99.90;;;;;;5053329;28;20209;-70
2022/04/22 03:19:49;;;;;;;14.32;12.90;;;6.60;99.90;;;;;;5053313;28;20174;-70
2022/04/22 03:22:16;;;;;;;15.87;13.67;;;6.60;99.90;;;;;;5054009;28;20176;-71
2022/04/22 03:24:42;;;;;;;14.97;13.37;;;6.50;99.90;;;;;;5053385;28;20178;-71
2022/04/22 03:27:08;;;;;;;14.37;12.97;;;6.40;99.90;;;;;;5052520;28;20202;-71
2022/04/22 03:29:35;;;;;;;15.70;14.00;;;6.30;99.90;;;;;;5052683;28;20179;-71
2022/04/22 03:32:01;;;;;;;15.47;13.93;;;6.20;99.90;;;;;;5052326;28;20185;-71
2022/04/22 03:34:26;;;;;;;14.30;12.87;;;6.10;99.90;;;;;;5053048;28;20213;-71
2022/04/22 03:36:52;;;;;;;14.40;13.00;;;6.00;99.90;;;;;;5052242;28;20240;-70
2022/04/22 03:39:18;;;;;;;15.10;13.60;;;5.90;99.90;;;;;;5052105;28;20208;-70
2022/04/22 03:41:44;;;;;;;15.17;13.13;;;5.90;99.90;;;;;;5052396;28;20178;-70
2022/04/22 03:44:10;;;;;;;14.67;13.17;;;5.90;99.90;;;;;;5053149;28;20186;-70
2022/04/22 03:46:35;;;;;;;15.43;13.73;;;5.90;99.90;;;;;;5052116;28;20206;-70
2022/04/22 03:49:01;;;;;;;15.57;13.97;;;5.80;99.90;;;;;;5053655;28;20182;-70
2022/04/22 03:51:28;;;;;;;15.57;13.97;;;5.80;99.90;;;;;;5053672;28;20236;-70
2022/04/22 03:53:53;;;;;;;16.07;13.73;;;5.80;99.90;;;;;;5052013;28;20247;-70
2022/04/22 03:59:05;;;;;;;15.40;13.80;;;5.70;99.90;;;;;;5053580;28;20174;-70
2022/04/22 04:01:31;;;;;;;15.83;14.17;;;5.80;99.90;;;;;;5052262;28;20175;-70
2022/04/22 04:03:57;;;;;;;15.40;13.50;;;5.80;99.90;;;;;;5052109;28;20182;-70
2022/04/22 04:06:23;;;;;;;16.37;14.67;;;5.90;99.90;;;;;;5052044;28;20286;-70
2022/04/22 04:15:57;;;;;;;14.97;13.37;;;5.90;99.90;;;;;;5052402;28;20178;-71
2022/04/22 04:17:15;;;;;;;16.67;12.77;;;5.90;99.90;;;;;;5033728;28;20210;-71
2022/04/22 04:25:09;;;;;;;17.33;12.73;;;5.80;99.90;;;;;;5057539;28;20516;-71
2022/04/22 04:27:36;;;;;;;15.70;13.43;;;5.70;99.90;;;;;;5056544;28;20201;-70
2022/04/22 04:30:03;;;;;;;13.70;12.30;;;5.60;99.90;;;;;;5057516;28;20315;-70
2022/04/22 04:32:29;;;;;;;16.60;13.23;;;5.60;99.90;;;;;;5055631;28;20213;-71
2022/04/22 04:34:54;;;;;;;16.80;13.20;;;5.60;99.90;;;;;;5056056;28;20178;-71
2022/04/22 04:37:21;;;;;;;14.70;12.50;;;5.70;99.90;;;;;;5055400;28;20194;-71
2022/04/22 04:39:47;;;;;;;14.33;12.43;;;5.70;99.90;;;;;;5055491;28;20182;-71
2022/04/22 04:42:12;;;;;;;15.03;13.40;;;5.80;99.90;;;;;;5055357;28;20170;-71
2022/04/22 04:44:38;;;;;;;14.23;12.67;;;5.80;99.90;;;;;;5055849;28;20170;-71
2022/04/22 04:47:04;;;;;;;13.27;11.70;;;5.90;99.90;;;;;;5055379;28;20201;-70
2022/04/22 04:49:29;;;;;;;17.30;12.87;;;6.00;99.90;;;;;;5055129;28;20183;-70
2022/04/22 04:51:55;;;;;;;19.97;12.83;;;6.20;99.90;;;;;;5055500;28;20269;-70
2022/04/22 04:54:20;;;;;;;17.87;11.87;;;6.20;99.90;;;;;;5056896;28;20201;-70
2022/04/22 04:56:46;;;;;;;14.17;12.07;;;6.20;99.90;;;;;;5055046;28;20202;-71
2022/04/22 04:59:12;;;;;;;16.17;12.47;;;6.20;99.90;;;;;;5056565;28;20178;-70
2022/04/22 05:01:37;;;;;;;14.30;12.80;;;6.30;99.90;;;;;;5055389;28;20320;-70
2022/04/22 05:04:03;;;;;;;16.07;12.80;;;6.40;99.90;;;;;;5054827;28;20178;-70
2022/04/22 05:06:30;;;;;;;14.57;13.00;;;6.50;99.90;;;;;;5055878;28;20198;-70
2022/04/22 05:08:56;;;;;;;15.07;13.60;;;6.60;99.90;;;;;;5056133;28;20166;-70
2022/04/22 05:11:22;;;;;;;14.93;13.33;;;6.80;99.90;;;;;;5055791;28;20197;-70
2022/04/22 05:13:47;;;;;;;15.30;13.77;;;6.90;99.90;;;;;;5054581;28;20202;-70
2022/04/22 05:16:13;;;;;;;17.38;13.48;;;7.10;99.90;;;;;;5054546;28;20550;-70
2022/04/22 05:18:40;;;;;;;15.83;13.60;;;7.30;99.90;;;;;;5054585;28;20175;-70
2022/04/22 05:21:05;;;;;;;15.20;12.68;;;7.40;99.90;;;;;;5055904;28;20170;-70
2022/04/22 05:23:31;;;;;;;19.15;13.63;;;7.50;99.90;;;;;;5054807;28;20180;-70
2022/04/22 05:25:57;;;;;;;14.77;13.13;;;7.60;99.90;;;;;;5055647;28;20611;-70
2022/04/22 05:28:22;;;;;;;15.02;13.15;;;7.80;99.90;;;;;;5054830;28;20208;-70
2022/04/22 05:33:33;;;;;;;14.38;12.95;;;8.00;99.90;;;;;;5054957;28;20200;-70
2022/04/22 05:35:59;;;;;;;15.50;13.90;;;8.20;99.90;;;;;;5055677;28;20283;-70
2022/04/22 05:38:25;;;;;;;14.25;12.85;;;8.20;99.90;;;;;;5055771;28;20225;-70
2022/04/22 05:40:50;;;;;;;16.75;15.10;;;8.30;99.90;;;;;;5055294;28;20694;-70
2022/04/22 05:43:16;;;;;;;15.93;13.98;;;8.50;99.90;;;;;;5054064;28;20189;-70
2022/04/22 05:45:41;;;;;;;14.05;12.65;;;8.60;99.90;;;;;;5054253;28;20186;-70
2022/04/22 05:48:07;;;;;;;15.73;14.18;;;8.70;99.90;;;;;;5054006;28;20178;-70
2022/04/22 05:50:33;;;;;;;14.60;13.10;;;8.80;99.90;;;;;;5055004;28;20188;-70
2022/04/22 05:52:59;;;;;;;18.73;14.02;;;8.90;99.90;;;;;;5054033;28;20208;-71
2022/04/22 05:55:27;;;;;;;15.23;13.60;;;8.90;99.90;;;;;;5053845;28;20227;-69
2022/04/22 05:57:53;;;;;;;15.30;13.77;;;9.00;99.90;;;;;;5055190;28;20174;-69
2022/04/22 06:00:24;;;;;;;15.38;13.82;;;9.10;99.90;;;;;;5053778;28;20197;-69
2022/04/22 06:02:50;;;;;;;15.20;13.10;;;9.20;99.90;;;;;;5054609;28;20209;-69
2022/04/22 06:05:17;;;;;;;16.70;14.45;;;9.30;99.90;;;;;;5053831;28;20232;-69
2022/04/22 06:07:43;;;;;;;14.68;13.23;;;9.40;99.90;;;;;;5053570;28;20202;-69
2022/04/22 06:12:54;;;;;;;17.70;13.35;;;9.50;99.90;;;;;;5055166;28;20193;-70
2022/04/22 06:15:20;;;;;;;14.30;12.88;;;9.50;99.90;;;;;;5054610;28;20179;-70
2022/04/22 06:17:46;;;;;;;14.98;13.48;;;9.60;99.90;;;;;;5053578;28;20336;-71
2022/04/22 06:20:12;;;;;;;14.55;13.15;;;9.80;99.90;;;;;;5054774;28;20166;-71
2022/04/22 06:22:54;;;;;;;18.95;12.68;;;9.80;99.90;;;;;;5054757;28;20189;-71
2022/04/22 06:25:20;;;;;;;21.52;13.30;;;9.80;99.90;;;;;;5054354;28;20171;-71
2022/04/22 06:27:46;;;;;;;14.73;12.88;;;9.90;99.90;;;;;;5054678;28;20281;-71
2022/04/22 06:30:13;;;;;;;15.38;12.57;;;10.00;99.70;;;;;;5053956;28;20201;-71
2022/04/22 06:32:41;;;;;;;13.73;12.30;;;10.00;98.50;;;;;;5054981;28;20255;-72
2022/04/22 06:35:08;;;;;;;14.18;12.77;;;10.20;98.40;;;;;;5054757;28;20178;-71
2022/04/22 06:37:39;;;;;;;14.52;12.50;;;10.30;97.70;;;;;;5054774;28;20243;-72
2022/04/22 06:45:46;;;;;;;14.68;12.80;;;10.50;94.60;;;;;;5055207;28;20173;-70
2022/04/22 06:48:30;;;;;;;11.80;10.63;;;10.60;94.80;;;;;;5054496;28;20181;-71
2022/04/22 06:50:57;;;;;;;12.70;11.48;;;10.70;93.70;;;;;;5054458;28;20175;-71
2022/04/22 06:53:23;;;;;;;12.88;11.35;;;10.80;92.60;;;;;;5054879;28;20197;-70
2022/04/22 06:55:50;;;;;;;12.88;11.52;;;10.90;91.20;;;;;;5053679;28;20198;-71
2022/04/22 06:58:18;;;;;;;13.93;12.52;;;10.70;91.00;;;;;;5054501;28;20170;-71
2022/04/22 07:00:45;;;;;;;13.75;12.27;;;10.50;92.30;;;;;;5054245;28;20178;-71
2022/04/22 07:03:12;;;;;;;13.85;12.45;;;10.40;93.00;;;;;;5054738;28;20184;-71
2022/04/22 07:05:40;;;;;;;12.73;11.52;;;10.40;92.40;;;;;;5053251;28;20247;-71
2022/04/22 07:08:07;;;;;;;17.90;11.80;;;10.30;93.00;;;;;;5054325;28;20175;-70
2022/04/22 07:10:34;;;;;;;12.60;11.30;;;10.40;93.00;;;;;;5052677;28;20736;-72
2022/04/22 07:13:00;;;;;;;11.85;10.65;;;10.40;93.20;;;;;;5052792;28;20691;-71
2022/04/22 07:15:27;;;;;;;17.05;12.32;;;10.50;92.60;;;;;;5036706;28;20209;-70
2022/04/22 07:17:53;;;;;;;12.18;10.98;;;10.50;92.90;;;;;;5054385;28;20236;-70
2022/04/22 07:20:19;;;;;;;13.60;11.00;;;10.60;91.80;;;;;;5053253;28;20185;-71
2022/04/22 07:22:45;;;;;;;12.10;10.90;;;10.70;90.70;;;;;;5053563;28;20189;-71
2022/04/22 07:25:12;;;;;;;14.23;10.70;;;10.80;90.60;;;;;;5052708;28;20261;-71
2022/04/22 07:27:39;;;;;;;13.82;10.95;;;10.80;90.00;;;;;;5053098;28;20202;-71
2022/04/22 07:30:10;;;;;;;11.88;10.77;;;10.80;89.10;;;;;;5053088;28;20189;-71
2022/04/22 07:32:40;;;;;;;12.68;11.38;;;10.90;89.50;;;;;;5052444;28;20295;-71
2022/04/22 07:35:12;;;;;;;12.32;11.02;;;11.00;88.60;;;;;;5052826;28;20166;-71
2022/04/22 07:37:48;;;;;;;12.73;10.88;;;11.10;90.00;;;;;;5053760;28;20194;-71
2022/04/22 07:40:22;;;;;;;14.52;10.32;;;11.20;87.10;;;;;;5052944;28;20183;-71
2022/04/22 07:48:21;;;;;;;11.68;10.52;;;11.90;83.50;;;;;;5053525;28;20208;-69
2022/04/22 07:50:47;;;;;;;11.63;10.45;;;12.00;80.70;;;;;;5053463;28;20205;-69
2022/04/22 07:53:22;;;;;;;11.85;10.65;;;12.20;80.80;;;;;;5052721;28;20205;-69
2022/04/22 07:55:49;;;;;;;11.30;10.20;;;12.30;82.00;;;;;;5053501;28;20197;-69
2022/04/22 07:58:16;;;;;;;10.73;9.73;;;12.40;79.50;;;;;;5056415;28;20178;-70
2022/04/22 08:00:44;;;;;;;10.75;9.75;;;12.60;78.90;;;;;;5057822;28;20170;-68
2022/04/22 08:03:10;;;;;;;10.52;9.52;;;12.80;78.50;;;;;;5057627;28;20196;-67
2022/04/22 08:05:39;;;;;;;11.40;10.30;;;13.10;77.20;;;;;;5057022;28;20703;-68
2022/04/22 08:08:41;;;;;;;11.27;10.18;;;13.20;76.20;;;;;;5056328;28;20182;-68
2022/04/22 08:11:07;;;;;;;10.43;9.43;;;13.40;74.90;;;;;;5056444;28;20193;-68
2022/04/22 08:13:34;;;;;;;12.27;9.90;;;13.50;73.30;;;;;;5055848;28;20704;-69
2022/04/22 08:16:00;;;;;;;11.82;10.57;;;13.20;70.90;;;;;;5056828;28;20190;-70
2022/04/22 08:18:26;;;;;;;11.55;10.45;;;13.30;71.30;;;;;;5056044;28;20178;-70
2022/04/22 08:20:51;;;;;;;10.77;9.65;;;13.60;70.80;;;;;;5055659;28;20213;-68
2022/04/22 08:23:20;;;;;;;11.95;10.75;;;14.10;70.40;;;;;;5055926;28;20190;-69
2022/04/22 08:25:45;;;;;;;11.68;10.57;;;14.10;67.40;;;;;;5057293;28;20179;-70
2022/04/22 08:28:11;;;;;;;11.02;9.93;;;13.90;67.00;;;;;;5056730;28;20170;-70
2022/04/22 08:30:37;;;;;;;11.20;10.20;;;13.90;68.90;;;;;;5055420;28;20181;-70
2022/04/22 08:33:02;;;;;;;11.05;10.05;;;13.70;67.70;;;;;;5056300;28;20205;-70
2022/04/22 08:35:28;;;;;;;12.15;10.65;;;13.70;69.00;;;;;;5056302;28;20324;-68
2022/04/22 08:37:54;;;;;;;11.60;10.40;;;13.80;69.10;;;;;;5055742;28;20174;-68
2022/04/22 08:40:26;;;;;;;11.75;10.63;;;14.00;68.70;;;;;;5055732;28;20352;-70
2022/04/22 08:42:53;;;;;;;10.07;9.18;;;13.90;68.80;;;;;;5056098;28;20175;-68
2022/04/22 08:45:22;;;;;;;10.50;9.43;;;13.90;68.60;;;;;;5055192;28;20210;-68
2022/04/22 08:50:33;;;;;;;10.45;9.50;;;13.80;67.40;;;;;;5056664;28;20232;-68
2022/04/22 08:53:05;;;;;;;11.60;10.48;;;13.80;67.70;;;;;;5055516;28;20305;-70
2022/04/22 08:55:32;;;;;;;12.63;11.40;;;13.80;68.00;;;;;;5055303;28;20178;-70
2022/04/22 08:57:59;;;;;;;11.98;10.70;;;13.70;67.70;;;;;;5060370;28;20183;-70
2022/04/22 09:00:27;;;;;;;13.32;10.85;;;13.70;67.80;;;;;;5056382;28;20544;-69
2022/04/22 09:02:57;;;;;;;11.88;10.75;;;13.90;67.90;;;;;;5055560;28;20185;-69
2022/04/22 09:05:24;;;;;;;13.77;9.98;;;14.00;66.40;;;;;;5055383;28;20182;-69
2022/04/22 09:07:51;;;;;;;10.48;9.55;;;14.10;67.50;;;;;;5054544;28;20198;-68
2022/04/22 09:10:17;;;;;;;11.65;9.30;;;14.10;66.80;;;;;;5055711;28;20158;-69
2022/04/22 09:12:53;;;;;;;10.80;9.77;;;14.30;65.90;;;;;;5055693;28;20601;-69
2022/04/22 09:15:23;;;;;;;10.35;9.27;;;14.40;65.30;;;;;;5054877;28;20169;-69
2022/04/22 09:17:48;;;;;;;10.25;9.25;;;14.40;64.60;;;;;;5055006;28;20251;-69
2022/04/22 09:20:15;;;;;;;9.90;9.10;;;14.30;65.80;;;;;;5055558;28;20178;-69
2022/04/22 09:22:44;;;;;;;11.15;9.88;;;14.40;65.20;;;;;;5056707;28;20193;-69
2022/04/22 09:25:10;;;;;;;10.68;9.60;;;14.50;65.40;;;;;;5054698;28;20178;-69
2022/04/22 09:27:42;;;;;;;12.48;9.95;;;14.40;65.10;;;;;;5054771;28;20202;-68
2022/04/22 09:30:11;;;;;;;10.65;9.65;;;14.50;63.10;;;;;;5055042;28;20178;-69
2022/04/22 09:32:39;;;;;;;11.32;10.32;;;14.60;64.50;;;;;;5054393;28;20222;-68
2022/04/22 09:35:08;;;;;;;10.38;9.15;;;14.60;63.70;;;;;;5054846;28;20186;-68
2022/04/22 09:43:47;;;;;;;11.02;9.95;;;14.60;64.60;;;;;;5055950;28;20655;-68
2022/04/22 09:46:33;;;;;;;10.45;9.40;;;14.80;63.80;;;;;;5055308;28;20201;-68
2022/04/22 09:48:59;;;;;;;9.77;8.88;;;14.80;63.40;;;;;;5055033;28;20235;-68
2022/04/22 09:51:32;;;;;;;10.57;8.98;;;15.00;63.30;;;;;;5055295;28;20174;-68
2022/04/22 09:54:14;;;;;;;10.55;9.60;;;15.20;62.50;;;;;;5054016;28;20263;-68
2022/04/22 09:56:55;;;;;;;9.93;9.02;;;15.20;61.30;;;;;;5055366;28;20225;-69
2022/04/22 09:59:33;;;;;;;9.65;8.75;;;15.10;61.70;;;;;;5054728;28;20166;-69
2022/04/22 10:02:00;;;;;;;12.20;9.07;;;15.00;61.60;;;;;;5055100;28;20509;-70
2022/04/22 10:04:27;;;;;;;9.15;8.35;;;15.20;61.70;;;;;;5053803;28;20186;-70
2022/04/22 10:06:54;;;;;;;9.95;8.32;;;15.40;61.90;;;;;;5054380;28;20202;-69
2022/04/22 10:09:22;;;;;;;10.63;8.25;;;15.70;59.80;;;;;;5053896;28;20178;-70
2022/04/22 10:11:47;;;;;;;9.90;8.57;;;15.90;59.10;;;;;;5055666;28;20198;-70
2022/04/22 10:14:16;;;;;;;10.43;8.27;;;16.10;58.90;;;;;;5053429;28;20336;-69
2022/04/22 10:16:43;;;;;;;8.30;7.55;;;15.90;58.80;;;;;;5054540;28;20190;-69
2022/04/22 10:19:09;;;;;;;8.38;7.55;;;15.90;59.00;;;;;;5053498;28;20174;-69
2022/04/22 10:24:58;;;;;;;7.28;6.68;;;15.90;56.50;;;;;;5054945;28;20224;-69
2022/04/22 10:27:24;;;;;;;6.45;5.95;;;16.50;56.60;;;;;;5053190;28;20288;-69
2022/04/22 10:29:51;;;;;;;7.60;7.00;;;16.80;55.60;;;;;;5053085;28;20264;-69
2022/04/22 10:32:18;;;;;;;8.05;7.30;;;17.00;56.60;;;;;;5054389;28;20178;-69
2022/04/22 10:34:45;;;;;;;6.60;6.03;;;17.10;53.90;;;;;;5054053;28;20174;-68
2022/04/22 10:37:23;;;;;;;10.70;6.60;;;17.20;53.70;;;;;;5053331;28;20201;-68
2022/04/22 10:40:01;;;;;;;10.57;6.97;;;17.40;52.50;;;;;;5054447;28;20178;-68
2022/04/22 10:42:34;;;;;;;10.18;8.23;;;17.30;53.00;;;;;;5053301;28;20170;-68
2022/04/22 10:47:47;;;;;;;10.57;6.60;;;17.10;53.50;;;;;;5054293;28;20247;-68
2022/04/22 10:50:34;;;;;;;6.70;6.10;;;17.10;53.50;;;;;;5052685;28;20174;-68
2022/04/22 10:53:05;;;;;;;5.70;5.20;;;17.20;53.60;;;;;;5052682;28;20226;-68
2022/04/22 10:55:33;;;;;;;6.65;6.05;;;17.40;54.00;;;;;;5052794;28;20174;-69
2022/04/22 10:58:17;;;;;;;8.48;6.30;;;17.70;54.00;;;;;;5052669;28;20598;-68
2022/04/22 11:00:47;;;;;;;12.77;6.45;;;17.70;52.10;;;;;;5052564;28;20216;-68
2022/04/22 11:03:21;;;;;;;8.32;6.63;;;17.40;52.40;;;;;;5052784;28;20182;-68
2022/04/22 11:06:01;;;;;;;9.30;6.50;;;17.30;52.60;;;;;;5053313;28;20601;-68
2022/04/22 11:08:30;;;;;;;7.88;6.18;;;17.10;52.40;;;;;;5052590;28;20170;-68
2022/04/22 11:10:58;;;;;;;6.72;6.20;;;17.10;52.70;;;;;;5052319;28;20194;-68
2022/04/22 11:13:44;;;;;;;6.78;5.45;;;17.20;52.30;;;;;;5052423;28;20198;-68
2022/04/22 11:16:16;;;;;;;6.78;5.90;;;17.50;52.30;;;;;;5052296;28;20673;-68
2022/04/22 11:18:43;;;;;;;8.30;7.53;;;17.70;52.50;;;;;;5053559;28;20236;-68
2022/04/22 11:21:46;;;;;;;8.38;7.57;;;17.60;54.60;;;;;;5052819;28;20655;-68
2022/04/22 11:24:19;;;;;;;7.57;6.38;;;17.40;55.20;;;;;;5053653;28;20178;-69
2022/04/22 11:27:11;;;;;;;20.27;6.25;;;17.10;55.00;;;;;;5053977;28;20252;-69
2022/04/22 11:30:35;;;;;;;6.97;6.20;;;17.10;53.40;;;;;;5053977;28;20155;-69
2022/04/22 11:33:19;;;;;;;7.20;6.22;;;17.00;53.20;;;;;;5051631;28;20202;-68
2022/04/22 11:35:49;;;;;;;7.53;5.90;;;16.70;53.50;;;;;;5052550;28;20539;-69
2022/04/22 11:38:15;;;;;;;5.82;5.30;;;16.60;54.10;;;;;;5053780;28;20154;-69
2022/04/22 11:40:43;;;;;;;5.78;5.28;;;16.60;53.30;;;;;;5052562;28;20216;-69
2022/04/22 11:43:10;;;;;;;8.57;5.63;;;16.80;53.60;;;;;;5054406;28;20265;-70
2022/04/22 11:45:37;;;;;;;9.30;5.00;;;17.00;52.30;;;;;;5052380;28;20209;-70
2022/04/22 11:48:10;;;;;;;5.60;4.80;;;16.80;51.20;;;;;;5052017;28;20182;-70
2022/04/22 11:50:43;;;;;;;19.65;5.00;;;16.80;50.60;;;;;;5052270;28;20174;-70
2022/04/22 11:53:32;;;;;;;5.88;4.15;;;16.70;49.90;;;;;;5052849;28;20209;-70
2022/04/22 11:56:00;;;;;;;4.28;3.88;;;16.90;50.10;;;;;;5053927;28;20198;-68
2022/04/22 11:58:28;;;;;;;12.73;11.43;;;17.00;48.90;;;;;;5052548;28;20231;-68
2022/04/22 12:06:28;;;;;;;45.80;37.15;;;17.60;50.60;;;;;;5053708;28;20907;-68
2022/04/22 12:08:56;;;;;;;27.05;23.52;;;18.00;50.30;;;;;;5053144;28;20177;-71
2022/04/22 12:11:24;;;;;;;6.93;6.32;;;17.90;49.60;;;;;;5053073;28;20633;-69
2022/04/22 12:13:56;;;;;;;6.82;6.20;;;17.60;50.40;;;;;;5052752;28;20198;-70
2022/04/22 12:16:24;;;;;;;7.53;6.20;;;17.40;50.20;;;;;;5052353;28;20195;-70
2022/04/22 12:18:54;;;;;;;7.28;5.70;;;16.90;50.20;;;;;;5052168;28;20221;-70
2022/04/22 12:21:21;;;;;;;7.00;6.43;;;17.00;51.00;;;;;;5051695;28;20175;-71
2022/04/22 12:23:51;;;;;;;7.68;6.93;;;17.20;51.80;;;;;;5052673;28;20178;-70
2022/04/22 12:26:30;;;;;;;10.93;9.38;;;17.00;51.70;;;;;;5053133;28;20349;-69
2022/04/22 12:29:02;;;;;;;9.82;8.82;;;17.30;52.80;;;;;;5051730;28;20219;-69
2022/04/22 12:31:29;;;;;;;8.25;7.15;;;17.60;52.30;;;;;;5051658;28;20281;-70
2022/04/22 12:34:03;;;;;;;9.32;7.80;;;17.80;51.80;;;;;;5051619;28;20240;-70
2022/04/22 12:36:30;;;;;;;8.73;7.93;;;17.70;51.00;;;;;;5051485;28;20198;-70
2022/04/22 12:38:56;;;;;;;12.18;8.98;;;17.50;51.70;;;;;;5051444;28;20248;-70
2022/04/22 12:41:25;;;;;;;9.35;8.55;;;17.30;52.40;;;;;;5052014;28;20204;-69
2022/04/22 12:43:55;;;;;;;9.70;8.80;;;16.80;52.80;;;;;;5053738;28;20178;-70
2022/04/22 12:52:31;;;;;;;9.65;8.75;;;16.70;53.60;;;;;;5056795;28;20197;-70
2022/04/22 12:55:09;;;;;;;9.07;8.20;;;17.00;54.10;;;;;;5055018;28;20220;-70
2022/04/22 12:57:39;;;;;;;8.80;8.00;;;17.20;53.10;;;;;;5054963;28;20194;-70
2022/04/22 13:00:18;;;;;;;8.45;7.75;;;17.30;53.20;;;;;;5056047;28;20171;-70
2022/04/22 13:02:45;;;;;;;10.32;8.02;;;17.30;52.30;;;;;;5055243;28;20239;-70
2022/04/22 13:05:18;;;;;;;9.68;8.55;;;17.10;52.60;;;;;;5056023;28;20259;-70
2022/04/22 13:07:47;;;;;;;8.20;7.50;;;17.10;53.30;;;;;;5054733;28;20288;-70
2022/04/22 13:10:14;;;;;;;8.80;7.97;;;17.20;53.50;;;;;;5054557;28;20629;-70
2022/04/22 13:13:03;;;;;;;9.82;8.80;;;17.40;52.80;;;;;;5054636;28;20201;-70
2022/04/22 13:15:28;;;;;;;10.90;9.80;;;17.30;53.20;;;;;;5054739;28;20260;-70
2022/04/22 13:17:54;;;;;;;10.02;9.02;;;17.00;53.90;;;;;;5056347;28;20281;-69
2022/04/22 13:20:20;;;;;;;9.63;8.82;;;16.80;55.30;;;;;;5054528;28;20652;-69
2022/04/22 13:22:47;;;;;;;10.18;9.18;;;17.00;55.30;;;;;;5054525;28;20181;-70
2022/04/22 13:25:21;;;;;;;10.18;9.20;;;16.80;55.00;;;;;;5054793;28;20630;-70
2022/04/22 13:27:47;;;;;;;10.80;9.77;;;16.80;55.90;;;;;;5054551;28;20208;-70
2022/04/22 13:30:15;;;;;;;9.77;8.98;;;16.70;55.50;;;;;;5056200;28;20179;-70
2022/04/22 13:32:41;;;;;;;11.13;9.32;;;16.70;55.80;;;;;;5054344;28;20182;-70
2022/04/22 13:35:07;;;;;;;10.75;8.75;;;16.80;55.50;;;;;;5054549;28;20185;-69
2022/04/22 13:37:33;;;;;;;9.60;8.80;;;16.60;56.40;;;;;;5054425;28;20289;-69
2022/04/22 13:40:00;;;;;;;10.25;9.10;;;16.50;56.30;;;;;;5054422;28;20179;-69
2022/04/22 13:42:26;;;;;;;10.27;9.25;;;16.40;56.30;;;;;;5054786;28;20167;-69
2022/04/22 13:53:13;;;;;;;10.90;9.80;;;16.30;56.50;;;;;;5055133;28;20189;-70
2022/04/22 13:55:39;;;;;;;10.20;9.13;;;16.20;56.60;;;;;;5054268;28;20170;-69
2022/04/22 13:58:05;;;;;;;9.18;8.27;;;16.30;57.00;;;;;;5054445;28;20170;-70
2022/04/22 14:00:50;;;;;;;12.15;9.05;;;16.30;57.20;;;;;;5053961;28;20178;-67